Aérodrome :
LOGIN :

S'inscrire | Disclaimer

   EN    FR    IT 

 










Légende :    VFR   VFR Marginal   IFR   IFR Intensif   IFR Très Intensif
Visi : 
Plafond : 
>= 8 km
>= 3000ft
5 à 8 km
1000 à 3000 ft
1500m à 5 km
500 à 1000 ft
800 à 1500m
200 à 500 ft
< 800m
< 200 ft
Symboles :   Orages  Brouillard  Fortes neiges  Fortes précipitations  Vent > 20 kt
SIGMETs :   Divers  Orages  Givrage  Turbulence  Onde Orograph.  Cendres Volcan.







- Altitude de l'aérodrome : 200 ft


EBBL - Klein Brogel AB

DERNIER METAR :
  • 152155Z AUTO 12005KT 9999 OVC086/// 00/M05 Q1013 BLU

METARs EXPIRÉS :
  • 152125Z AUTO 12005KT 9999 OVC100/// M00/M05 Q1013 BLU
  • 152055Z AUTO 12005KT 9999 OVC130/// M01/M05 Q1014 BLU
  • 152025Z AUTO 12004KT 9999 OVC150/// M01/M05 Q1015 BLU
  • 151955Z AUTO 12005KT 9999 BKN150/// M01/M05 Q1015 BLU
  • 151925Z AUTO 12005KT 9999 SCT160/// BKN210/// M01/M05 Q1016 BLU

Prévision TAF périmée.
Pas de NOTAMs connus pour ce terrain.
4 SIGMETs publiés pour la FIR Brussels (EBBU) :
 
Turbulence forte
EBBU SIGMET 08 VALID 152200/160200 EBBR
EBBU BRUSSELS FIR SEV TURB FCST EAST OF E00330 SFC/FL050 MOV NE 15KT NC=
Givrage fort
EBBU SIGMET 07 VALID 151930/152330 EBBR
EBBU BRUSSELS FIR SEV ICE FCST ENTIRE FIR FL060/180 MOV NE 15KT NC=
Givrage fort avec pluie surfondue
EBBU SIGMET 05 VALID 151900/152300 EBBR
EBBU BRUSSELS FIR SEV ICE (FZRA) OBS ENTIRE FIR SFC/FL020 MOV NE 15KT NC=
Turbulence forte
EBBU SIGMET 04 VALID 151800/152200 EBBR
EBBU BRUSSELS FIR SEV TURB FCST SW OF LINE N5112 E00257 - N5015 E00441 SFC/FL050 MOV NE 15KT NC=



MET'MAP, la Météo Aéronautique d'un coup d'oeil ! - Copyright ORBIFLY Décembre 2007 - Disclaimer

ORBIFLY MET'MAP TEAM :

Programmation & Développement : Alexandra Zaïnal
Conception & Développement : Baudouin d'Aumeries
Co-Programmation & Développement : Marc-Olivier Méhu
Soutien technique & logistique : Manuel Goepfert

Contact : metmap@orbifly.com




SOURCES & CREDITS :

   NOAA